Time;durP1;ratioP1;P1;durP2;ratioP2;P2;SDS_P1;SDS_P2;PMS_P1;PMS_P2;Temp;Humidity;BMP_temperature;BMP_pressure;BME280_temperature;BME280_humidity;BME280_pressure;Samples;Min_cycle;Max_cycle;Signal;HPM_P1;HPM_P2
2022/12/15 00:40:58;;;;;;;6.82;3.97;;;;;;;;;;10275613;28;20148;-85
2022/12/15 01:23:38;;;;;;;9.02;4.88;;;;;;;;;;10269553;28;20108;-89
2022/12/15 01:28:43;;;;;;;8.15;4.50;;;;;;;;;;10309019;28;20042;-84
2022/12/15 01:33:47;;;;;;;9.83;5.43;;;;;;;;;;10268566;28;20076;-89
2022/12/15 01:38:53;;;;;;;7.70;4.55;;;;;;;;;;10257637;28;20607;-84
2022/12/15 01:44:17;;;;;;;9.40;4.75;;;;;;;;;;10266598;28;20057;-84
2022/12/15 01:49:26;;;;;;;7.90;4.63;;;;;;;;;;10271205;28;20426;-82
2022/12/15 01:54:34;;;;;;;11.75;6.22;;;;;;;;;;10275138;28;20070;-82
2022/12/15 01:59:42;;;;;;;11.18;5.97;;;;;;;;;;10258036;28;20294;-82
2022/12/15 02:04:47;;;;;;;8.00;4.10;;;;;;;;;;10260112;28;20105;-82
2022/12/15 02:09:53;;;;;;;12.88;6.43;;;;;;;;;;10290507;28;20043;-82
2022/12/15 02:15:12;;;;;;;9.68;5.05;;;;;;;;;;10294010;28;20596;-82
2022/12/15 02:20:41;;;;;;;10.35;5.78;;;;;;;;;;10277252;28;20561;-89
2022/12/15 02:26:02;;;;;;;6.72;4.28;;;;;;;;;;10277080;28;20089;-84
2022/12/15 02:36:32;;;;;;;7.13;3.95;;;;;;;;;;10259905;28;20038;-86
2022/12/15 02:41:38;;;;;;;8.00;4.32;;;;;;;;;;10286524;28;20672;-84
2022/12/15 02:46:48;;;;;;;;;;;;;;;;;;10265626;28;20134;-85
2022/12/15 02:52:02;;;;;;;9.07;4.32;;;;;;;;;;10276936;28;20409;-84
2022/12/15 02:57:15;;;;;;;9.10;4.88;;;;;;;;;;10300075;28;20137;-84
2022/12/15 03:02:20;;;;;;;8.57;5.20;;;;;;;;;;10274924;28;20047;-85
2022/12/15 03:07:26;;;;;;;9.48;5.57;;;;;;;;;;10270449;28;20526;-88
2022/12/15 03:12:32;;;;;;;8.57;4.63;;;;;;;;;;10271669;28;20085;-88
2022/12/15 03:17:37;;;;;;;12.48;5.53;;;;;;;;;;10263046;28;20058;-86
2022/12/15 03:22:47;;;;;;;10.00;5.68;;;;;;;;;;10284296;28;20074;-85
2022/12/15 03:27:52;;;;;;;11.48;6.60;;;;;;;;;;10284132;28;20300;-85
2022/12/15 03:32:59;;;;;;;13.77;6.28;;;;;;;;;;10267866;28;20134;-89
2022/12/15 03:38:02;;;;;;;9.25;5.70;;;;;;;;;;10278174;28;20558;-82
2022/12/15 03:43:12;;;;;;;10.18;5.68;;;;;;;;;;10268802;28;20050;-82
2022/12/15 03:48:17;;;;;;;11.40;5.78;;;;;;;;;;10266881;28;20081;-82
2022/12/15 03:53:22;;;;;;;11.63;4.95;;;;;;;;;;10270029;28;20257;-82
2022/12/15 03:58:26;;;;;;;8.43;4.87;;;;;;;;;;10265339;28;20129;-81
2022/12/15 04:03:32;;;;;;;10.13;5.70;;;;;;;;;;10286814;28;20054;-82
2022/12/15 04:08:36;;;;;;;12.63;7.43;;;;;;;;;;10269854;28;20171;-82
2022/12/15 04:13:40;;;;;;;12.45;7.05;;;;;;;;;;10255264;28;20110;-82
2022/12/15 04:20:07;;;;;;;11.13;6.13;;;;;;;;;;10276005;28;20137;-81
2022/12/15 05:33:49;;;;;;;10.02;6.03;;;;;;;;;;10258375;28;20054;-87
2022/12/15 05:38:54;;;;;;;12.93;6.10;;;;;;;;;;10273791;28;20534;-87
2022/12/15 05:43:58;;;;;;;9.70;5.47;;;;;;;;;;10275683;28;20418;-89
2022/12/15 05:49:04;;;;;;;11.00;6.68;;;;;;;;;;10266244;28;20330;-87
2022/12/15 05:54:17;;;;;;;10.40;5.70;;;;;;;;;;10273111;28;20052;-87
2022/12/15 05:59:32;;;;;;;10.80;4.97;;;;;;;;;;10280833;28;20050;-85
2022/12/15 06:04:38;;;;;;;11.60;5.45;;;;;;;;;;10264560;28;20056;-82
2022/12/15 06:09:45;;;;;;;8.75;5.30;;;;;;;;;;10256689;28;20038;-85
2022/12/15 06:14:59;;;;;;;9.75;4.10;;;;;;;;;;10264147;28;20054;-89
2022/12/15 06:20:26;;;;;;;13.27;6.32;;;;;;;;;;10310128;28;20042;-90
2022/12/15 06:25:36;;;;;;;12.52;6.88;;;;;;;;;;10279712;28;20062;-89
2022/12/15 06:30:40;;;;;;;11.07;6.03;;;;;;;;;;10279705;28;20101;-89
2022/12/15 06:36:09;;;;;;;11.07;4.95;;;;;;;;;;10307946;28;20050;-86
2022/12/15 06:41:21;;;;;;;8.40;5.20;;;;;;;;;;10303412;28;20043;-90
2022/12/15 06:46:33;;;;;;;10.18;5.18;;;;;;;;;;10268093;28;20620;-86
2022/12/15 06:51:38;;;;;;;9.93;5.55;;;;;;;;;;10263243;28;20074;-86
2022/12/15 06:56:45;;;;;;;11.10;6.05;;;;;;;;;;10277054;28;20077;-86
2022/12/15 07:01:51;;;;;;;10.13;5.30;;;;;;;;;;10293234;28;20120;-84
2022/12/15 07:06:59;;;;;;;12.98;5.72;;;;;;;;;;10279059;28;20320;-85
2022/12/15 07:12:06;;;;;;;9.02;5.53;;;;;;;;;;10283226;28;20042;-86
2022/12/15 07:17:13;;;;;;;9.55;5.22;;;;;;;;;;10285186;28;20502;-89
2022/12/15 07:22:20;;;;;;;15.13;6.60;;;;;;;;;;10304231;28;20180;-87
2022/12/15 07:27:26;;;;;;;11.95;6.28;;;;;;;;;;10310663;28;20074;-90
2022/12/15 07:32:35;;;;;;;11.02;5.93;;;;;;;;;;10294067;28;20046;-88
2022/12/15 07:37:40;;;;;;;11.05;5.53;;;;;;;;;;10297101;28;20141;-91
2022/12/15 07:42:47;;;;;;;9.60;5.05;;;;;;;;;;10294104;28;20053;-88
2022/12/15 07:47:52;;;;;;;12.30;6.07;;;;;;;;;;10276855;28;20518;-86
2022/12/15 07:52:59;;;;;;;12.45;6.32;;;;;;;;;;10276333;28;20049;-86
2022/12/15 07:58:04;;;;;;;10.93;6.47;;;;;;;;;;10266369;28;20084;-91
2022/12/15 08:03:10;;;;;;;13.63;6.50;;;;;;;;;;10281005;28;20136;-86
2022/12/15 08:08:17;;;;;;;13.77;6.68;;;;;;;;;;10283283;28;20038;-86
2022/12/15 08:13:24;;;;;;;12.23;5.75;;;;;;;;;;10263487;28;20514;-86
2022/12/15 08:18:50;;;;;;;12.52;6.25;;;;;;;;;;10265362;28;20050;-85
2022/12/15 08:24:18;;;;;;;14.40;6.82;;;;;;;;;;10275468;28;20046;-86
2022/12/15 08:29:29;;;;;;;12.52;6.82;;;;;;;;;;10277034;28;20039;-86
2022/12/15 08:34:52;;;;;;;10.63;5.93;;;;;;;;;;10266098;28;20050;-87
2022/12/15 08:40:00;;;;;;;7.97;4.03;;;;;;;;;;10270846;28;20046;-87
2022/12/15 08:45:13;;;;;;;7.00;4.35;;;;;;;;;;10248842;28;20043;-86
2022/12/15 08:50:24;;;;;;;9.63;5.07;;;;;;;;;;10256683;28;20038;-87
2022/12/15 08:55:36;;;;;;;7.35;4.35;;;;;;;;;;10273185;28;20048;-85
2022/12/15 09:00:42;;;;;;;8.98;4.55;;;;;;;;;;10290069;28;20474;-87
2022/12/15 09:05:46;;;;;;;9.05;5.03;;;;;;;;;;10288460;28;20049;-86
2022/12/15 09:10:54;;;;;;;14.23;6.60;;;;;;;;;;10249569;28;20247;-86
2022/12/15 09:16:00;;;;;;;11.80;5.28;;;;;;;;;;10250188;28;20054;-85
2022/12/15 09:21:13;;;;;;;10.65;5.30;;;;;;;;;;10266321;28;20038;-86
2022/12/15 09:26:23;;;;;;;10.98;5.65;;;;;;;;;;10271871;28;20073;-86
2022/12/15 09:31:38;;;;;;;10.68;5.43;;;;;;;;;;10275388;28;20520;-87
2022/12/15 09:36:42;;;;;;;11.63;5.22;;;;;;;;;;10290029;28;20038;-89
2022/12/15 09:41:53;;;;;;;12.57;6.60;;;;;;;;;;10283772;28;20039;-88
2022/12/15 09:47:33;;;;;;;15.10;6.22;;;;;;;;;;10256203;28;20050;-93
2022/12/15 09:52:48;;;;;;;12.60;6.18;;;;;;;;;;10284587;28;20067;-86
2022/12/15 09:58:00;;;;;;;10.70;5.60;;;;;;;;;;10269294;28;20129;-84
2022/12/15 10:03:41;;;;;;;9.88;5.05;;;;;;;;;;10269002;28;20047;-90
2022/12/15 10:09:03;;;;;;;8.63;4.80;;;;;;;;;;10258216;28;20058;-87
2022/12/15 10:14:18;;;;;;;10.02;5.75;;;;;;;;;;10269450;28;20100;-86
2022/12/15 10:19:53;;;;;;;12.18;6.05;;;;;;;;;;10254225;28;20525;-86
2022/12/15 10:25:01;;;;;;;12.23;6.55;;;;;;;;;;10288702;28;20050;-86
2022/12/15 10:30:40;;;;;;;11.50;5.93;;;;;;;;;;10288075;28;20525;-86
2022/12/15 10:35:47;;;;;;;13.45;6.65;;;;;;;;;;10262098;28;20135;-88
2022/12/15 10:40:53;;;;;;;11.93;6.15;;;;;;;;;;10271994;28;20097;-88
2022/12/15 10:46:12;;;;;;;11.05;6.05;;;;;;;;;;10266437;28;20141;-88
2022/12/15 10:51:33;;;;;;;11.40;5.95;;;;;;;;;;10283753;28;20074;-88
2022/12/15 10:56:48;;;;;;;11.52;5.63;;;;;;;;;;10273358;28;20042;-87
2022/12/15 11:01:52;;;;;;;13.40;6.78;;;;;;;;;;10276232;28;20093;-87
2022/12/15 11:07:02;;;;;;;13.55;6.18;;;;;;;;;;10295479;28;20054;-87
2022/12/15 11:17:43;;;;;;;11.13;5.35;;;;;;;;;;10282614;28;20486;-87
2022/12/15 11:22:55;;;;;;;12.20;6.32;;;;;;;;;;10265396;28;20066;-87
2022/12/15 11:28:10;;;;;;;9.47;5.13;;;;;;;;;;10269076;28;20469;-87
2022/12/15 11:33:23;;;;;;;10.57;5.80;;;;;;;;;;10270208;28;20070;-89
2022/12/15 11:38:56;;;;;;;9.95;5.28;;;;;;;;;;10289347;28;20078;-86
2022/12/15 11:44:37;;;;;;;9.93;5.38;;;;;;;;;;10283071;28;20057;-85
2022/12/15 11:50:13;;;;;;;7.68;4.65;;;;;;;;;;10191121;28;20106;-84
2022/12/15 11:55:30;;;;;;;8.98;5.20;;;;;;;;;;10265043;28;20077;-87
2022/12/15 12:01:00;;;;;;;9.88;5.88;;;;;;;;;;10290026;28;20050;-87
2022/12/15 12:06:32;;;;;;;11.65;6.32;;;;;;;;;;10259881;28;20376;-87
2022/12/15 12:11:53;;;;;;;13.65;6.82;;;;;;;;;;10293114;28;20156;-88
2022/12/15 12:17:02;;;;;;;12.27;7.40;;;;;;;;;;10255298;28;20070;-88
2022/12/15 12:22:29;;;;;;;11.25;6.05;;;;;;;;;;10280002;28;20042;-88
2022/12/15 12:27:51;;;;;;;12.07;6.93;;;;;;;;;;10270784;28;20170;-88
2022/12/15 12:33:09;;;;;;;8.98;5.28;;;;;;;;;;10251581;28;20138;-87
2022/12/15 12:38:19;;;;;;;7.80;4.90;;;;;;;;;;10263248;28;20054;-89
2022/12/15 12:43:50;;;;;;;13.45;7.32;;;;;;;;;;10287088;28;20113;-87
2022/12/15 12:49:06;;;;;;;12.35;7.40;;;;;;;;;;10285459;28;20051;-88
2022/12/15 12:54:48;;;;;;;11.40;5.75;;;;;;;;;;10279031;28;20085;-87
2022/12/15 12:59:58;;;;;;;12.57;7.10;;;;;;;;;;10247636;28;20157;-85
2022/12/15 13:05:23;;;;;;;11.60;5.80;;;;;;;;;;10260842;28;20549;-86
2022/12/15 13:10:35;;;;;;;10.82;6.35;;;;;;;;;;10283909;28;20577;-85
2022/12/15 13:15:47;;;;;;;10.32;5.88;;;;;;;;;;10251166;28;20489;-86
2022/12/15 13:20:58;;;;;;;12.13;6.75;;;;;;;;;;10262988;28;20046;-92
2022/12/15 13:26:26;;;;;;;9.70;5.88;;;;;;;;;;10297522;28;20116;-88
2022/12/15 13:31:42;;;;;;;10.18;5.43;;;;;;;;;;10279586;28;20042;-87
2022/12/15 13:36:52;;;;;;;10.98;6.25;;;;;;;;;;10267979;28;20129;-86
2022/12/15 13:42:45;;;;;;;11.13;5.45;;;;;;;;;;10287504;28;20505;-87
2022/12/15 13:47:57;;;;;;;10.00;5.32;;;;;;;;;;10283919;28;20510;-88
2022/12/15 13:53:09;;;;;;;11.02;5.88;;;;;;;;;;10289603;28;20050;-85
2022/12/15 13:58:25;;;;;;;8.23;4.82;;;;;;;;;;10275727;28;20043;-85
2022/12/15 14:03:33;;;;;;;10.73;5.38;;;;;;;;;;10268570;28;20439;-85
2022/12/15 14:08:40;;;;;;;12.82;6.00;;;;;;;;;;10270623;28;20676;-85
2022/12/15 14:13:44;;;;;;;8.82;5.50;;;;;;;;;;10278217;28;20066;-84
2022/12/15 14:19:12;;;;;;;9.85;6.05;;;;;;;;;;10263526;28;20055;-85
2022/12/15 14:24:24;;;;;;;11.60;6.68;;;;;;;;;;10288023;28;20665;-85
2022/12/15 14:29:48;;;;;;;12.32;6.97;;;;;;;;;;10270272;28;20135;-84
2022/12/15 14:35:02;;;;;;;14.48;7.28;;;;;;;;;;10243639;28;20047;-85
2022/12/15 14:40:21;;;;;;;12.90;7.30;;;;;;;;;;10261666;28;20051;-88
2022/12/15 14:45:35;;;;;;;11.48;6.47;;;;;;;;;;10275968;28;20078;-85
2022/12/15 14:50:51;;;;;;;12.95;7.00;;;;;;;;;;10266352;28;20790;-85
2022/12/15 14:56:31;;;;;;;12.05;6.85;;;;;;;;;;10248034;28;20730;-85
2022/12/15 15:01:40;;;;;;;11.05;6.07;;;;;;;;;;10245561;28;20055;-84
2022/12/15 15:07:04;;;;;;;12.25;6.75;;;;;;;;;;10238023;28;20454;-85
2022/12/15 15:12:17;;;;;;;13.10;6.90;;;;;;;;;;10255820;28;20053;-85
2022/12/15 15:17:37;;;;;;;15.68;8.13;;;;;;;;;;10249059;28;20073;-85
2022/12/15 15:22:45;;;;;;;17.13;9.40;;;;;;;;;;10271643;28;20092;-84
2022/12/15 15:27:52;;;;;;;14.43;8.13;;;;;;;;;;10255071;28;20126;-84
2022/12/15 15:33:06;;;;;;;13.05;6.95;;;;;;;;;;10248901;28;20042;-87
2022/12/15 15:38:29;;;;;;;13.77;7.43;;;;;;;;;;10260051;28;20051;-87
2022/12/15 15:43:50;;;;;;;12.20;6.30;;;;;;;;;;10284219;28;20066;-86
2022/12/15 15:49:00;;;;;;;14.20;7.55;;;;;;;;;;10270364;28;20046;-86
2022/12/15 15:54:17;;;;;;;16.30;8.38;;;;;;;;;;10270486;28;20042;-88
2022/12/15 15:59:27;;;;;;;14.77;7.68;;;;;;;;;;10268186;28;20063;-87
2022/12/15 16:04:39;;;;;;;14.02;8.10;;;;;;;;;;10254296;28;20055;-87
2022/12/15 16:09:47;;;;;;;15.38;8.25;;;;;;;;;;10274098;28;20063;-87
2022/12/15 16:14:53;;;;;;;13.60;7.70;;;;;;;;;;10252123;28;20050;-86
2022/12/15 16:19:58;;;;;;;13.93;8.15;;;;;;;;;;10281642;28;20122;-87
2022/12/15 16:25:13;;;;;;;14.77;7.90;;;;;;;;;;10292101;28;20046;-88
2022/12/15 16:30:21;;;;;;;16.73;8.73;;;;;;;;;;10295935;28;20049;-84
2022/12/15 16:35:26;;;;;;;15.00;8.13;;;;;;;;;;10290624;28;20074;-84
2022/12/15 16:40:36;;;;;;;17.15;9.43;;;;;;;;;;10298042;28;20067;-85
2022/12/15 16:45:47;;;;;;;17.63;8.88;;;;;;;;;;10277014;28;20820;-85
2022/12/15 16:50:54;;;;;;;16.17;9.00;;;;;;;;;;10276367;28;20050;-84
2022/12/15 16:55:59;;;;;;;;;;;;;;;;;;10261776;28;20534;-84
2022/12/15 17:01:06;;;;;;;16.20;7.95;;;;;;;;;;10280309;28;20012;-85
2022/12/15 17:06:16;;;;;;;15.23;8.35;;;;;;;;;;10266285;28;20039;-84
2022/12/15 17:11:26;;;;;;;14.52;7.60;;;;;;;;;;10286897;28;20049;-90
2022/12/15 17:16:35;;;;;;;13.30;6.97;;;;;;;;;;10311609;28;20034;-88
2022/12/15 17:49:16;;;;;;;18.40;8.90;;;;;;;;;;10788135;23;20122;-89
2022/12/15 17:54:20;;;;;;;23.48;11.73;;;;;;;;;;10311676;23;20189;-85
2022/12/15 17:59:24;;;;;;;21.45;9.45;;;;;;;;;;10302265;28;20180;-86
2022/12/15 18:04:30;;;;;;;26.48;12.98;;;;;;;;;;10285649;28;20038;-87
2022/12/15 18:09:33;;;;;;;19.83;10.93;;;;;;;;;;10304649;28;20047;-85
2022/12/15 18:14:36;;;;;;;20.20;10.73;;;;;;;;;;10311647;28;20077;-87
2022/12/15 18:19:44;;;;;;;21.95;10.70;;;;;;;;;;10316950;28;20073;-86
2022/12/15 18:24:49;;;;;;;19.08;9.68;;;;;;;;;;10297531;28;20057;-87
2022/12/15 18:29:53;;;;;;;18.63;9.13;;;;;;;;;;10305943;28;20056;-84
2022/12/15 18:34:57;;;;;;;19.60;10.15;;;;;;;;;;10283877;28;20035;-85
2022/12/15 18:40:01;;;;;;;25.05;12.60;;;;;;;;;;10325623;28;20039;-86
2022/12/15 18:45:16;;;;;;;29.23;14.18;;;;;;;;;;10277155;28;20043;-86
2022/12/15 18:50:23;;;;;;;25.05;11.95;;;;;;;;;;10285635;28;20105;-83
2022/12/15 18:55:31;;;;;;;22.23;11.20;;;;;;;;;;10279932;28;20065;-83
2022/12/15 19:00:34;;;;;;;17.20;9.07;;;;;;;;;;10257879;28;20047;-83
2022/12/15 19:05:39;;;;;;;17.35;8.70;;;;;;;;;;10271187;28;20038;-85
2022/12/15 19:10:50;;;;;;;17.93;8.43;;;;;;;;;;10289972;28;20120;-86
2022/12/15 19:15:56;;;;;;;22.33;9.43;;;;;;;;;;10301060;28;20074;-86
2022/12/15 19:26:46;;;;;;;18.10;9.57;;;;;;;;;;10297661;28;20054;-85
2022/12/15 19:31:50;;;;;;;23.23;10.38;;;;;;;;;;10306784;28;20570;-86
2022/12/15 19:36:58;;;;;;;20.77;9.65;;;;;;;;;;10284752;28;20409;-87
2022/12/15 19:42:05;;;;;;;21.48;10.07;;;;;;;;;;10292506;28;20094;-87
2022/12/15 19:47:15;;;;;;;23.70;12.00;;;;;;;;;;10296550;28;20101;-87
2022/12/15 19:52:25;;;;;;;22.58;10.23;;;;;;;;;;10281585;28;20134;-87
2022/12/15 19:57:34;;;;;;;18.50;9.45;;;;;;;;;;10295916;28;20061;-85
2022/12/15 20:02:40;;;;;;;18.58;10.07;;;;;;;;;;10285310;28;20046;-85
2022/12/15 20:07:48;;;;;;;21.98;10.60;;;;;;;;;;10278500;28;20050;-85
2022/12/15 20:12:54;;;;;;;27.10;12.23;;;;;;;;;;10283860;28;20046;-86
2022/12/15 20:17:59;;;;;;;25.13;12.95;;;;;;;;;;10306099;28;20073;-86
2022/12/15 20:23:14;;;;;;;24.02;11.73;;;;;;;;;;10289612;28;20050;-86
2022/12/15 20:28:23;;;;;;;27.13;14.23;;;;;;;;;;10282083;28;20046;-85
2022/12/15 20:33:30;;;;;;;28.15;13.52;;;;;;;;;;10283398;28;20074;-84
2022/12/15 20:38:35;;;;;;;22.15;11.13;;;;;;;;;;10290479;28;20137;-86
2022/12/15 20:43:39;;;;;;;22.13;10.77;;;;;;;;;;10297996;28;20055;-88
2022/12/15 20:48:45;;;;;;;19.13;9.68;;;;;;;;;;10305337;28;20049;-85
2022/12/15 20:53:54;;;;;;;20.52;10.65;;;;;;;;;;10261235;28;20818;-83
2022/12/15 20:59:00;;;;;;;19.33;9.18;;;;;;;;;;10285457;28;20050;-86
2022/12/15 21:04:25;;;;;;;19.13;9.30;;;;;;;;;;10302778;28;20034;-86
2022/12/15 21:09:32;;;;;;;22.10;10.30;;;;;;;;;;10294865;28;20051;-88
2022/12/15 21:14:35;;;;;;;24.30;11.20;;;;;;;;;;10286873;28;20058;-87
2022/12/15 21:19:39;;;;;;;28.00;13.05;;;;;;;;;;10302933;28;20620;-88
2022/12/15 21:24:44;;;;;;;27.75;13.63;;;;;;;;;;10295640;28;20498;-88
2022/12/15 21:29:49;;;;;;;26.48;12.90;;;;;;;;;;10286988;28;20141;-83
2022/12/15 21:34:55;;;;;;;27.42;11.50;;;;;;;;;;10272375;28;20733;-82
2022/12/15 21:40:00;;;;;;;21.05;10.88;;;;;;;;;;10277425;28;20049;-82
2022/12/15 21:45:12;;;;;;;23.60;11.32;;;;;;;;;;10290625;28;20034;-82
2022/12/15 21:50:19;;;;;;;22.02;10.25;;;;;;;;;;10270516;28;20050;-83
2022/12/15 21:55:26;;;;;;;21.00;10.35;;;;;;;;;;10267247;28;20117;-83
2022/12/15 22:00:29;;;;;;;25.33;11.90;;;;;;;;;;10266314;28;20684;-83
2022/12/15 22:05:33;;;;;;;31.58;13.40;;;;;;;;;;10264699;28;20046;-83
2022/12/15 22:10:41;;;;;;;25.63;12.57;;;;;;;;;;10290297;28;20581;-84
2022/12/15 22:15:47;;;;;;;27.30;12.27;;;;;;;;;;10282476;28;20121;-83
2022/12/15 22:20:51;;;;;;;19.33;9.55;;;;;;;;;;10307080;28;20050;-88
2022/12/15 22:25:58;;;;;;;19.17;9.65;;;;;;;;;;10305039;28;20073;-88
2022/12/15 22:31:03;;;;;;;15.40;7.15;;;;;;;;;;10285873;28;20070;-83
2022/12/15 22:36:07;;;;;;;14.57;7.10;;;;;;;;;;10275332;28;20038;-85
2022/12/15 22:41:19;;;;;;;13.23;6.90;;;;;;;;;;10262419;28;20114;-83
2022/12/15 22:46:24;;;;;;;13.02;6.25;;;;;;;;;;10285217;28;20042;-84
2022/12/15 22:51:29;;;;;;;12.52;6.45;;;;;;;;;;10286031;28;20049;-82
2022/12/15 22:56:38;;;;;;;11.07;5.53;;;;;;;;;;10260358;28;20047;-82
2022/12/15 23:01:41;;;;;;;11.77;6.20;;;;;;;;;;10293253;28;20508;-84
2022/12/15 23:06:45;;;;;;;10.52;5.68;;;;;;;;;;10285327;28;20042;-82
2022/12/15 23:11:50;;;;;;;11.02;5.55;;;;;;;;;;10277309;28;20054;-82
2022/12/15 23:16:53;;;;;;;8.55;5.28;;;;;;;;;;10292767;28;20042;-83
2022/12/15 23:21:57;;;;;;;12.50;5.88;;;;;;;;;;10271970;28;20059;-81
2022/12/15 23:27:01;;;;;;;12.10;5.60;;;;;;;;;;10278175;28;20053;-82
2022/12/15 23:32:05;;;;;;;12.02;6.05;;;;;;;;;;10276670;28;20056;-83
2022/12/15 23:37:11;;;;;;;15.73;6.82;;;;;;;;;;10262476;28;20039;-82
2022/12/15 23:42:16;;;;;;;23.20;10.15;;;;;;;;;;10270141;28;20157;-83
2022/12/15 23:47:19;;;;;;;19.23;8.68;;;;;;;;;;10265139;28;20118;-82
2022/12/15 23:52:23;;;;;;;17.85;7.63;;;;;;;;;;10266514;28;20129;-83
2022/12/15 23:57:28;;;;;;;14.63;6.85;;;;;;;;;;10285438;28;20043;-83
